Time;durP1;ratioP1;P1;durP2;ratioP2;P2;SDS_P1;SDS_P2;PMS_P1;PMS_P2;Temp;Humidity;BMP_temperature;BMP_pressure;BME280_temperature;BME280_humidity;BME280_pressure;Samples;Min_cycle;Max_cycle;Signal;HPM_P1;HPM_P2
2023/09/13 00:00:15;;;;;;;10.55;9.07;;;;;;;18.46;100.00;100804.97;6092157;23;20689;-73
2023/09/13 00:02:41;;;;;;;9.65;8.85;;;;;;;18.65;100.00;100844.97;6090280;23;20138;-71
2023/09/13 00:05:09;;;;;;;10.63;9.55;;;;;;;18.63;100.00;100849.59;6088626;23;20026;-73
2023/09/13 00:07:36;;;;;;;9.90;8.98;;;;;;;18.32;100.00;100804.31;6088327;23;20026;-72
2023/09/13 00:10:02;;;;;;;10.75;8.48;;;;;;;18.56;100.00;100851.06;6060078;23;20032;-72
2023/09/13 00:12:29;;;;;;;10.68;8.88;;;;;;;18.52;100.00;100853.16;6066609;23;20083;-71
2023/09/13 00:14:55;;;;;;;16.48;9.45;;;;;;;18.35;100.00;100827.13;6088378;23;20026;-71
2023/09/13 00:17:22;;;;;;;12.52;9.32;;;;;;;18.42;100.00;100843.41;6062767;23;20033;-72
2023/09/13 00:19:48;;;;;;;10.95;9.73;;;;;;;18.14;100.00;100790.75;6090615;23;20025;-72
2023/09/13 00:22:15;;;;;;;10.43;9.13;;;;;;;18.60;100.00;100862.28;6092674;23;20636;-71
2023/09/13 00:24:41;;;;;;;10.30;9.32;;;;;;;18.34;100.00;100817.47;6084579;23;20026;-71
2023/09/13 00:27:08;;;;;;;11.48;9.75;;;;;;;18.49;100.00;100847.25;6067312;23;20021;-72
2023/09/13 00:29:34;;;;;;;14.52;9.63;;;;;;;18.60;100.00;100867.59;6084829;23;20084;-71
2023/09/13 00:32:01;;;;;;;10.02;9.07;;;;;;;18.05;100.00;100788.00;6085136;23;20784;-72
2023/09/13 00:34:29;;;;;;;11.00;8.88;;;;;;;18.29;100.00;100822.31;6092539;23;20121;-72
2023/09/13 00:36:56;;;;;;;17.83;9.32;;;;;;;18.44;100.00;100854.75;6086737;23;20097;-72
2023/09/13 00:39:23;;;;;;;12.13;9.23;;;;;;;18.53;100.00;100884.06;6059247;23;20124;-71
2023/09/13 00:41:49;;;;;;;12.63;9.25;;;;;;;17.59;100.00;100728.03;6062245;23;20066;-72
2023/09/13 00:44:16;;;;;;;11.57;9.15;;;;;;;17.93;100.00;100782.72;6088880;23;20025;-72
2023/09/13 00:46:44;;;;;;;12.75;9.63;;;;;;;18.37;100.00;100853.59;6092778;23;20026;-72
2023/09/13 00:49:11;;;;;;;12.32;9.50;;;;;;;18.11;100.00;100819.38;6084594;23;20017;-72
2023/09/13 00:51:38;;;;;;;11.95;9.38;;;;;;;18.50;100.00;100884.34;6084556;23;20058;-72
2023/09/13 00:54:05;;;;;;;14.93;9.50;;;;;;;18.03;100.00;100809.38;6084246;23;20570;-72
2023/09/13 00:56:33;;;;;;;11.40;8.57;;;;;;;18.50;100.00;100888.78;6055099;23;20110;-72
2023/09/13 00:59:01;;;;;;;10.32;9.32;;;;;;;18.19;100.00;100855.94;6088572;23;20579;-72
2023/09/13 01:01:29;;;;;;;13.20;9.98;;;;;;;18.47;100.00;100900.50;6097996;23;20797;-72
2023/09/13 01:03:57;;;;;;;11.05;9.15;;;;;;;18.25;100.00;100850.13;6103829;23;20026;-71
2023/09/13 01:06:24;;;;;;;12.52;9.40;;;;;;;18.42;100.00;100878.81;6087173;23;20572;-74
2023/09/13 01:08:50;;;;;;;9.38;8.32;;;;;;;18.49;100.00;100887.13;6060765;23;20028;-71
2023/09/13 01:11:18;;;;;;;18.48;9.18;;;;;;;18.44;100.00;100879.53;6082250;23;20017;-73
2023/09/13 01:13:45;;;;;;;10.30;9.00;;;;;;;18.47;100.00;100884.56;6089760;23;20025;-72
2023/09/13 01:16:24;;;;;;;12.15;9.57;;;;;;;18.47;100.00;100883.75;6094744;23;20045;-72
2023/09/13 01:18:59;;;;;;;11.30;9.13;;;;;;;18.44;100.00;100891.94;6089671;23;20038;-71
2023/09/13 01:21:58;;;;;;;10.38;8.93;;;;;;;18.17;100.00;100856.06;6095708;23;20029;-71
2023/09/13 01:25:03;;;;;;;9.32;8.43;;;;;;;18.32;100.00;100885.81;6095902;23;20018;-71
2023/09/13 01:27:54;;;;;;;9.85;8.52;;;;;;;18.43;100.00;100895.59;6026944;23;20682;-71
2023/09/13 01:30:22;;;;;;;10.57;9.48;;;;;;;18.38;100.00;100889.78;6054551;23;20072;-71
2023/09/13 01:32:51;;;;;;;9.40;8.50;;;;;;;18.00;100.00;100849.47;6055371;23;20097;-73
2023/09/13 01:35:18;;;;;;;14.50;9.23;;;;;;;17.98;100.00;100843.44;6082595;23;20053;-71
2023/09/13 01:37:44;;;;;;;13.18;10.43;;;;;;;18.22;100.00;100896.38;6060515;23;20018;-73
2023/09/13 01:40:11;;;;;;;13.68;10.15;;;;;;;18.24;100.00;100910.38;6083862;23;20064;-72
2023/09/13 01:42:38;;;;;;;10.55;8.85;;;;;;;18.26;100.00;100905.78;6063748;23;20217;-72
2023/09/13 01:45:09;;;;;;;13.20;9.55;;;;;;;17.86;100.00;100842.63;6059550;23;20048;-73
2023/09/13 01:47:38;;;;;;;15.45;9.88;;;;;;;18.33;100.00;100911.44;6092130;23;20100;-72
2023/09/13 01:50:06;;;;;;;11.25;9.95;;;;;;;17.96;100.00;100844.50;6058466;23;20022;-72
2023/09/13 01:52:33;;;;;;;11.50;8.88;;;;;;;18.28;100.00;100893.22;6060388;23;20161;-72
2023/09/13 01:55:00;;;;;;;16.10;11.23;;;;;;;18.41;100.00;100918.78;6055856;23;20030;-72
2023/09/13 01:57:26;;;;;;;12.65;10.35;;;;;;;18.49;100.00;100921.66;6086513;23;20034;-73
2023/09/13 01:59:52;;;;;;;12.13;10.40;;;;;;;18.49;100.00;100924.31;6080547;23;20017;-72
2023/09/13 02:02:19;;;;;;;14.95;9.93;;;;;;;18.27;100.00;100880.91;6093312;23;20533;-72
2023/09/13 02:04:45;;;;;;;13.77;10.85;;;;;;;18.49;100.00;100919.84;6082717;23;20740;-72
2023/09/13 02:07:13;;;;;;;18.63;10.15;;;;;;;18.13;100.00;100865.25;6068967;23;20022;-73
2023/09/13 02:09:40;;;;;;;12.07;9.30;;;;;;;17.95;100.00;100849.00;6093262;23;20044;-72
2023/09/13 02:12:09;;;;;;;12.77;9.40;;;;;;;18.50;100.00;100928.66;6087992;23;20378;-72
2023/09/13 02:14:38;;;;;;;17.88;10.00;;;;;;;18.26;100.00;100881.88;6083817;23;20017;-72
2023/09/13 02:17:06;;;;;;;14.73;10.73;;;;;;;18.39;100.00;100907.44;6086392;23;20022;-72
2023/09/13 02:19:33;;;;;;;12.38;9.73;;;;;;;18.20;100.00;100881.50;6089955;23;20025;-72
2023/09/13 02:21:59;;;;;;;12.60;9.98;;;;;;;18.07;100.00;100863.94;6090679;23;20091;-73
2023/09/13 02:24:26;;;;;;;19.10;10.95;;;;;;;18.11;100.00;100868.03;6094887;23;20451;-72
2023/09/13 02:26:56;;;;;;;13.90;9.73;;;;;;;18.44;100.00;100916.72;6089318;23;20037;-72
2023/09/13 02:29:24;;;;;;;15.18;10.35;;;;;;;18.51;100.00;100919.72;6096024;23;20609;-72
2023/09/13 02:31:50;;;;;;;13.40;10.15;;;;;;;18.34;100.00;100899.81;6083072;23;20510;-73
2023/09/13 02:34:17;;;;;;;11.70;9.88;;;;;;;18.30;100.00;100911.69;6064296;23;20017;-72
2023/09/13 02:36:45;;;;;;;12.98;9.75;;;;;;;18.29;100.00;100904.69;6058538;23;20612;-72
2023/09/13 02:39:31;;;;;;;18.98;11.38;;;;;;;18.48;100.00;100930.59;6083723;23;20558;-72
2023/09/13 02:41:57;;;;;;;15.13;11.02;;;;;;;18.40;100.00;100927.72;6085741;23;20537;-74
2023/09/13 02:44:27;;;;;;;14.70;10.88;;;;;;;18.46;100.00;100936.06;6063002;23;20022;-71
2023/09/13 02:46:53;;;;;;;16.90;10.80;;;;;;;18.05;100.00;100865.03;6060870;23;20018;-73
2023/09/13 02:49:20;;;;;;;14.02;9.98;;;;;;;18.11;100.00;100867.19;6089805;23;20029;-72
2023/09/13 02:51:51;;;;;;;19.38;11.57;;;;;;;18.48;100.00;100928.78;6084347;23;20029;-72
2023/09/13 02:54:17;;;;;;;19.27;11.52;;;;;;;18.06;100.00;100874.66;6090303;23;20039;-73
2023/09/13 02:56:49;;;;;;;20.38;11.07;;;;;;;18.14;100.00;100890.81;6090901;23;20033;-73
2023/09/13 02:59:15;;;;;;;14.85;11.13;;;;;;;18.46;100.00;100945.81;6082947;23;20022;-73
2023/09/13 03:01:42;;;;;;;17.08;11.65;;;;;;;18.07;100.00;100876.38;6087787;23;20096;-72
2023/09/13 03:04:09;;;;;;;17.90;10.95;;;;;;;18.19;100.00;100907.25;6086779;23;20010;-70
2023/09/13 03:06:38;;;;;;;18.15;12.27;;;;;;;17.05;100.00;100738.47;6063871;23;22131;-70
2023/09/13 03:09:05;;;;;;;23.00;12.98;;;;;;;18.31;100.00;100940.78;6091207;23;20049;-71
2023/09/13 03:11:31;;;;;;;18.95;12.35;;;;;;;17.71;100.00;100863.22;6070228;23;20022;-73
2023/09/13 03:14:00;;;;;;;20.67;12.13;;;;;;;18.09;100.00;100935.53;6087297;23;20038;-71
2023/09/13 03:16:27;;;;;;;20.42;13.20;;;;;;;18.03;100.00;100925.38;6084258;23;20028;-71
2023/09/13 03:18:54;;;;;;;23.08;12.98;;;;;;;18.20;100.00;100962.06;6085876;23;20022;-71
2023/09/13 03:21:21;;;;;;;22.88;13.25;;;;;;;17.62;100.00;100882.56;6087110;23;20028;-72
2023/09/13 03:23:48;;;;;;;16.85;10.90;;;;;;;18.11;100.00;100968.13;6082555;23;20022;-73
2023/09/13 03:26:16;;;;;;;19.77;11.63;;;;;;;18.08;100.00;100963.03;6061296;23;20067;-72
2023/09/13 03:28:45;;;;;;;22.17;12.38;;;;;;;18.03;100.00;100962.56;6090296;23;21531;-72
2023/09/13 03:31:13;;;;;;;22.88;12.45;;;;;;;17.87;100.00;100947.00;6085680;23;20026;-70
2023/09/13 03:33:40;;;;;;;20.65;12.27;;;;;;;17.54;100.00;100898.25;6085729;23;20029;-70
2023/09/13 03:36:11;;;;;;;20.65;12.77;;;;;;;17.92;100.00;100987.28;6090943;23;20020;-71
2023/09/13 03:38:39;;;;;;;23.98;12.07;;;;;;;17.92;100.00;100982.84;6089891;23;20025;-72
2023/09/13 03:41:09;;;;;;;22.25;12.23;;;;;;;17.95;100.00;100984.41;6087479;23;20050;-72
2023/09/13 03:43:36;;;;;;;20.77;12.73;;;;;;;17.97;100.00;100979.00;6086796;23;20345;-72
2023/09/13 03:46:04;;;;;;;19.80;12.45;;;;;;;17.86;100.00;100967.41;6076217;23;20018;-72
2023/09/13 03:48:32;;;;;;;21.42;12.50;;;;;;;17.74;100.00;100941.81;6093817;23;20049;-72
2023/09/13 03:50:58;;;;;;;21.13;12.98;;;;;;;17.73;100.00;100925.00;6086563;23;20050;-72
2023/09/13 03:53:25;;;;;;;17.35;11.57;;;;;;;17.84;100.00;100945.44;6086464;23;20121;-71
2023/09/13 03:55:52;;;;;;;22.40;12.15;;;;;;;17.98;100.00;100970.91;6066215;23;20766;-72
2023/09/13 03:58:19;;;;;;;20.30;12.35;;;;;;;18.12;100.00;100980.41;6092582;23;20097;-70
2023/09/13 04:00:46;;;;;;;26.23;12.68;;;;;;;17.71;100.00;100908.34;6100121;23;20033;-71
2023/09/13 04:03:15;;;;;;;20.13;12.98;;;;;;;18.18;100.00;100982.59;6091472;23;20021;-71
2023/09/13 04:05:43;;;;;;;17.38;11.60;;;;;;;18.19;100.00;100973.66;6089153;23;20623;-71
2023/09/13 04:08:09;;;;;;;22.50;12.73;;;;;;;18.01;100.00;100940.59;6084778;23;20054;-71
2023/09/13 04:10:36;;;;;;;16.58;10.90;;;;;;;18.23;100.00;100977.75;6090202;23;20014;-73
2023/09/13 04:13:02;;;;;;;16.77;11.30;;;;;;;17.87;100.00;100915.97;6060202;23;20089;-72
2023/09/13 04:15:29;;;;;;;19.27;11.98;;;;;;;18.16;100.00;100973.03;6085086;23;20053;-73
2023/09/13 04:17:55;;;;;;;23.95;12.63;;;;;;;18.11;100.00;100973.44;6085058;23;20026;-72
2023/09/13 04:20:22;;;;;;;17.70;12.63;;;;;;;17.78;100.00;100929.97;6089275;23;20022;-72
2023/09/13 04:22:49;;;;;;;21.02;12.70;;;;;;;18.05;100.00;100980.06;6061742;23;20022;-71
2023/09/13 04:25:16;;;;;;;28.08;14.02;;;;;;;17.88;100.00;100952.19;6085109;23;20633;-72
2023/09/13 04:27:47;;;;;;;24.95;14.70;;;;;;;17.87;100.00;100949.66;6090645;23;20883;-71
2023/09/13 04:30:17;;;;;;;21.67;13.25;;;;;;;17.87;100.00;100936.38;6084341;23;20034;-71
2023/09/13 04:32:43;;;;;;;20.27;13.90;;;;;;;18.22;100.00;100992.03;6090159;23;20093;-71
2023/09/13 04:35:12;;;;;;;27.45;14.00;;;;;;;17.99;100.00;100950.50;6088529;23;20027;-70
2023/09/13 04:37:39;;;;;;;36.95;16.63;;;;;;;18.18;100.00;100987.91;6082758;23;20036;-70
2023/09/13 04:40:06;;;;;;;30.45;14.32;;;;;;;17.45;100.00;100873.25;6082604;23;20012;-72
2023/09/13 04:42:37;;;;;;;35.20;16.73;;;;;;;18.06;100.00;100978.25;6060984;23;20026;-72
2023/09/13 04:45:04;;;;;;;36.38;16.60;;;;;;;17.99;100.00;100966.44;6085332;23;20010;-71
2023/09/13 04:47:31;;;;;;;32.72;16.23;;;;;;;17.71;100.00;100926.94;6086666;23;20342;-71
2023/09/13 04:49:57;;;;;;;31.17;14.88;;;;;;;18.04;100.00;100988.16;6090466;23;20647;-71
2023/09/13 04:52:24;;;;;;;31.55;15.48;;;;;;;17.61;100.00;100920.66;6087382;23;20021;-71
2023/09/13 04:54:50;;;;;;;32.35;14.65;;;;;;;17.99;100.00;100987.69;6060878;23;20087;-72
2023/09/13 04:57:17;;;;;;;28.25;15.65;;;;;;;17.97;100.00;100993.09;6092461;23;20036;-73
2023/09/13 04:59:45;;;;;;;29.92;14.68;;;;;;;17.71;100.00;100953.47;6060278;23;20026;-73
2023/09/13 05:02:12;;;;;;;35.75;15.93;;;;;;;17.98;100.00;100996.59;6092814;23;20018;-72
2023/09/13 05:04:39;;;;;;;27.17;14.90;;;;;;;17.62;100.00;100943.59;6091108;23;20171;-72
2023/09/13 05:07:06;;;;;;;34.60;15.13;;;;;;;17.75;100.00;100956.75;6092037;23;20025;-73
2023/09/13 05:09:35;;;;;;;29.92;15.20;;;;;;;17.03;100.00;100849.09;6059257;23;20047;-70
2023/09/13 05:12:02;;;;;;;22.98;13.60;;;;;;;16.92;100.00;100834.03;6088864;23;22221;-71
2023/09/13 05:14:28;;;;;;;26.42;14.27;;;;;;;17.98;100.00;101002.78;6088820;23;20025;-72
2023/09/13 05:16:55;;;;;;;30.42;15.63;;;;;;;17.67;100.00;100964.47;6085539;23;20105;-71
2023/09/13 05:19:21;;;;;;;24.58;14.15;;;;;;;17.52;100.00;100932.00;6055940;23;20022;-71
2023/09/13 05:21:48;;;;;;;20.50;13.23;;;;;;;17.57;100.00;100939.59;6088149;23;20104;-71
2023/09/13 05:24:15;;;;;;;29.15;13.98;;;;;;;17.48;100.00;100935.84;6088634;23;20018;-71
2023/09/13 05:26:41;;;;;;;24.90;14.35;;;;;;;17.43;100.00;100930.06;6059502;23;20030;-71
2023/09/13 05:29:08;;;;;;;18.83;13.10;;;;;;;17.66;100.00;100958.31;6060521;23;20012;-71
2023/09/13 05:31:34;;;;;;;24.75;13.40;;;;;;;17.31;100.00;100908.81;6090116;23;20025;-71
2023/09/13 05:34:01;;;;;;;19.60;12.10;;;;;;;17.31;100.00;100926.53;6057840;23;20571;-72
2023/09/13 05:36:28;;;;;;;19.73;11.93;;;;;;;17.65;100.00;100983.16;6092814;23;20624;-71
2023/09/13 05:38:54;;;;;;;24.23;13.15;;;;;;;17.42;100.00;100955.75;6089379;23;20097;-70
2023/09/13 05:41:20;;;;;;;21.95;13.63;;;;;;;17.59;100.00;100996.91;6087820;23;20017;-71
2023/09/13 05:43:47;;;;;;;26.85;13.35;;;;;;;17.34;100.00;100956.34;6088282;23;20029;-71
2023/09/13 05:46:15;;;;;;;24.15;14.40;;;;;;;17.39;100.00;100960.44;6089739;23;20024;-73
2023/09/13 05:48:42;;;;;;;22.52;13.07;;;;;;;16.81;100.00;100854.34;6063436;23;20554;-71
2023/09/13 05:51:09;;;;;;;19.35;12.82;;;;;;;17.63;100.00;100982.44;6092209;23;20030;-71
2023/09/13 05:53:35;;;;;;;21.02;12.93;;;;;;;17.57;100.00;100960.84;6098139;23;20078;-72
2023/09/13 05:56:05;;;;;;;25.67;12.05;;;;;;;17.80;100.00;100980.28;6082536;23;20021;-71
2023/09/13 05:58:32;;;;;;;25.45;13.55;;;;;;;17.96;100.00;101003.84;6093867;23;20043;-72
2023/09/13 06:00:59;;;;;;;25.58;11.20;;;;;;;18.00;100.00;101006.16;6094434;23;20081;-74
2023/09/13 06:03:25;;;;;;;20.08;12.05;;;;;;;18.00;100.00;101014.13;6096757;23;20021;-71
2023/09/13 06:05:52;;;;;;;18.67;12.60;;;;;;;18.01;100.00;101018.44;6091535;23;20029;-70
2023/09/13 06:08:19;;;;;;;18.52;12.10;;;;;;;17.79;100.00;100968.81;6091325;23;20031;-73
2023/09/13 06:10:46;;;;;;;17.95;12.02;;;;;;;17.54;100.00;100933.56;6088724;23;20040;-71
2023/09/13 06:13:14;;;;;;;22.08;12.93;;;;;;;17.91;100.00;100982.97;6091346;23;20041;-71
2023/09/13 06:15:42;;;;;;;24.38;12.20;;;;;;;18.12;100.00;101013.16;6063203;23;20580;-70
2023/09/13 06:18:08;;;;;;;23.02;12.05;;;;;;;18.03;100.00;101000.59;6092678;23;20026;-71
2023/09/13 06:20:35;;;;;;;18.25;11.48;;;;;;;18.17;100.00;101018.09;6034307;23;20026;-72
2023/09/13 06:23:02;;;;;;;21.50;14.07;;;;;;;17.90;100.00;100990.09;6090782;23;20093;-71
2023/09/13 06:25:28;;;;;;;19.35;11.70;;;;;;;17.77;100.00;100962.78;6089787;23;20547;-72
2023/09/13 06:27:55;;;;;;;18.35;11.20;;;;;;;17.78;100.00;100958.31;6095510;23;20026;-72
2023/09/13 06:30:21;;;;;;;15.63;11.40;;;;;;;18.13;100.00;101027.28;6092366;23;20096;-70
2023/09/13 06:32:48;;;;;;;12.55;10.13;;;;;;;18.14;100.00;101024.50;6090060;23;20526;-71
2023/09/13 06:35:37;;;;;;;20.02;11.88;;;;;;;18.12;100.00;101025.56;6091044;23;20045;-72
2023/09/13 06:38:04;;;;;;;17.50;11.52;;;;;;;18.14;100.00;101032.47;6091168;23;20030;-72
2023/09/13 06:40:33;;;;;;;16.23;11.38;;;;;;;17.97;100.00;100986.97;6088255;23;20041;-72
2023/09/13 06:43:01;;;;;;;14.50;11.02;;;;;;;18.10;100.00;100995.63;6094762;23;20396;-72
2023/09/13 06:45:29;;;;;;;15.38;10.32;;;;;;;17.89;100.00;100951.22;6048997;23;20034;-73
2023/09/13 06:47:57;;;;;;;16.23;9.95;;;;;;;17.89;100.00;100959.19;6091858;23;20083;-71
2023/09/13 06:50:25;;;;;;;17.15;11.68;;;;;;;17.60;100.00;100918.13;6063570;23;20677;-71
2023/09/13 06:53:11;;;;;;;15.95;10.93;;;;;;;18.38;100.00;101014.69;6088806;23;20025;-72
2023/09/13 06:55:57;;;;;;;12.95;11.13;;;;;;;18.46;100.00;101014.91;6088513;23;20060;-72
2023/09/13 06:58:30;;;;;;;15.27;10.50;;;;;;;18.57;100.00;101014.91;6067774;23;20033;-71
2023/09/13 07:00:59;;;;;;;13.35;10.52;;;;;;;18.49;100.00;100977.47;6084848;23;20421;-71
2023/09/13 07:03:29;;;;;;;18.33;11.38;;;;;;;18.71;100.00;100989.84;6058327;23;20050;-71
2023/09/13 07:06:00;;;;;;;12.27;10.00;;;;;;;18.86;100.00;100987.78;6088377;23;20030;-71
2023/09/13 07:08:26;;;;;;;14.85;10.10;;;;;;;18.99;100.00;100984.97;6085068;23;20123;-73
2023/09/13 07:10:53;;;;;;;15.40;10.55;;;;;;;18.52;100.00;100906.31;6091789;23;20048;-71
2023/09/13 07:13:19;;;;;;;15.63;11.07;;;;;;;19.11;100.00;100981.28;6089593;23;20070;-70
2023/09/13 07:15:46;;;;;;;12.63;9.80;;;;;;;19.00;100.00;100936.09;6086903;23;20026;-71
2023/09/13 07:18:13;;;;;;;14.77;9.88;;;;;;;19.04;100.00;100926.88;6092163;23;20573;-71
2023/09/13 07:20:39;;;;;;;12.48;10.23;;;;;;;19.47;100.00;100963.16;6093728;23;20017;-71
2023/09/13 07:23:06;;;;;;;13.10;9.70;;;;;;;19.45;100.00;100941.16;6091323;23;20104;-71
2023/09/13 07:25:32;;;;;;;16.23;12.68;;;;;;;19.23;100.00;100904.91;6051275;23;22610;-71
2023/09/13 07:28:00;;;;;;;16.42;10.68;;;;;;;19.63;100.00;100946.72;6062235;23;20042;-71
2023/09/13 07:30:27;;;;;;;15.02;11.43;;;;;;;19.48;100.00;100893.81;6087331;23;20024;-72
2023/09/13 07:32:54;;;;;;;14.85;10.50;;;;;;;19.78;100.00;100924.09;6085595;23;20029;-71
2023/09/13 07:35:20;;;;;;;16.48;10.77;;;;;;;20.01;100.00;100916.75;6088077;23;20705;-71
2023/09/13 07:37:47;;;;;;;12.93;10.20;;;;;;;20.29;100.00;100912.47;6082208;23;20114;-71
2023/09/13 07:40:14;;;;;;;12.50;9.75;;;;;;;20.31;100.00;100875.84;6065948;23;20100;-72
2023/09/13 07:42:40;;;;;;;19.20;10.30;;;;;;;20.46;100.00;100872.75;6059721;23;20030;-71
2023/09/13 07:45:07;;;;;;;16.92;11.27;;;;;;;20.56;100.00;100873.59;6083190;23;20020;-71
2023/09/13 07:47:34;;;;;;;22.17;10.27;;;;;;;20.57;100.00;100853.97;6088038;23;20172;-71
2023/09/13 07:50:00;;;;;;;15.35;10.40;;;;;;;20.59;100.00;100822.69;6086846;23;20267;-71
2023/09/13 07:52:27;;;;;;;13.73;10.25;;;;;;;20.52;100.00;100776.22;6083044;23;20030;-71
2023/09/13 07:55:08;;;;;;;12.18;9.00;;;;;;;20.44;100.00;100760.94;6083603;23;20085;-71
2023/09/13 07:57:34;;;;;;;11.20;9.23;;;;;;;19.63;100.00;100630.72;6078256;23;20366;-71
2023/09/13 08:00:01;;;;;;;12.68;9.65;;;;;;;20.32;100.00;100722.94;6089483;23;20329;-71
2023/09/13 08:02:27;;;;;;;12.43;8.68;;;;;;;20.43;100.00;100732.59;6087200;23;20148;-71
2023/09/13 08:04:53;;;;;;;9.95;8.57;;;;;;;20.75;100.00;100763.44;6088529;23;20279;-71
2023/09/13 08:07:20;;;;;;;10.10;8.35;;;;;;;20.78;100.00;100751.63;6058427;23;20984;-71
2023/09/13 08:09:46;;;;;;;11.93;8.80;;;;;;;20.91;100.00;100725.50;6057264;23;20020;-71
2023/09/13 08:12:13;;;;;;;10.75;8.00;;;;;;;21.55;98.59;100757.63;6082460;23;20426;-71
2023/09/13 08:14:42;;;;;;;10.52;8.48;;;;;;;21.26;95.79;100668.69;6084802;23;20441;-71
2023/09/13 08:17:11;;;;;;;12.63;8.80;;;;;;;21.42;94.44;100673.34;6086245;23;20029;-72
2023/09/13 08:19:37;;;;;;;10.63;9.50;;;;;;;21.78;93.56;100715.31;6085509;23;20093;-72
2023/09/13 08:22:04;;;;;;;11.50;8.80;;;;;;;21.27;92.29;100627.66;6085227;23;20037;-72
2023/09/13 08:24:32;;;;;;;10.90;8.77;;;;;;;21.42;91.56;100665.34;6089274;23;20067;-73
2023/09/13 08:26:59;;;;;;;10.93;9.95;;;;;;;21.47;92.41;100694.31;6074037;23;20618;-71
2023/09/13 08:29:25;;;;;;;9.43;8.52;;;;;;;21.72;93.24;100732.78;6076748;23;20036;-72
2023/09/13 08:31:52;;;;;;;9.40;8.50;;;;;;;21.77;91.47;100701.13;6080528;23;20018;-72
2023/09/13 08:34:18;;;;;;;11.10;9.30;;;;;;;21.73;90.66;100661.47;6082039;23;20022;-72
2023/09/13 08:36:45;;;;;;;12.57;9.48;;;;;;;21.89;90.45;100691.03;6084028;23;20428;-72
2023/09/13 08:39:12;;;;;;;11.38;9.13;;;;;;;21.45;88.56;100613.53;6067516;23;20010;-70
2023/09/13 08:41:39;;;;;;;10.60;9.48;;;;;;;21.44;88.94;100627.84;6083006;23;20339;-71
2023/09/13 08:44:07;;;;;;;11.07;8.68;;;;;;;21.75;90.04;100708.44;6086340;23;20083;-71
2023/09/13 08:46:34;;;;;;;12.23;9.32;;;;;;;21.60;90.98;100731.31;6079253;23;20488;-71
2023/09/13 08:49:05;;;;;;;10.73;9.10;;;;;;;20.42;93.10;100621.63;6077261;23;20401;-72
2023/09/13 08:51:33;;;;;;;10.57;8.65;;;;;;;20.89;93.71;100733.63;6072213;23;20120;-71
2023/09/13 08:54:02;;;;;;;13.80;9.18;;;;;;;20.86;96.60;100797.09;6080175;23;20039;-71
2023/09/13 08:56:30;;;;;;;10.30;9.20;;;;;;;20.63;98.52;100823.28;6061970;23;20087;-74
2023/09/13 08:58:57;;;;;;;13.25;9.13;;;;;;;20.19;100.00;100815.66;6084556;23;20025;-71
2023/09/13 09:01:25;;;;;;;13.10;8.98;;;;;;;20.45;100.00;100865.75;6082019;23;20425;-70
2023/09/13 09:03:52;;;;;;;12.77;8.95;;;;;;;20.48;100.00;100860.97;6084788;23;20056;-72
2023/09/13 09:06:20;;;;;;;13.18;9.02;;;;;;;20.42;100.00;100850.03;6084893;23;20025;-71
2023/09/13 09:08:49;;;;;;;15.80;8.90;;;;;;;20.68;100.00;100875.16;6056804;23;20045;-72
2023/09/13 09:11:18;;;;;;;10.55;8.73;;;;;;;20.77;100.00;100857.50;6088297;23;20093;-71
2023/09/13 09:13:45;;;;;;;11.35;9.25;;;;;;;20.69;100.00;100820.03;6086160;23;20990;-72
2023/09/13 09:16:16;;;;;;;10.50;9.27;;;;;;;20.18;98.44;100720.72;6063338;23;20068;-71
2023/09/13 09:18:44;;;;;;;11.00;8.35;;;;;;;20.91;98.47;100842.88;6082558;23;20041;-71
2023/09/13 09:21:11;;;;;;;9.65;8.65;;;;;;;20.48;99.28;100790.81;6094281;23;20101;-71
2023/09/13 09:23:39;;;;;;;12.75;8.43;;;;;;;20.87;99.03;100854.81;6083623;23;20021;-72
2023/09/13 09:26:05;;;;;;;10.45;9.00;;;;;;;21.01;99.02;100858.84;6081001;23;20455;-71
2023/09/13 09:28:32;;;;;;;9.85;8.52;;;;;;;20.58;98.56;100788.97;6088838;23;20041;-71
2023/09/13 09:31:01;;;;;;;9.80;8.77;;;;;;;20.85;97.91;100814.94;6087493;23;20094;-70
2023/09/13 09:33:29;;;;;;;14.40;8.75;;;;;;;21.03;95.79;100831.03;6088791;23;20643;-72
2023/09/13 09:36:00;;;;;;;14.18;8.95;;;;;;;20.66;96.42;100782.97;6087967;23;20028;-71
2023/09/13 09:38:28;;;;;;;9.52;8.52;;;;;;;20.99;97.04;100853.66;6054088;23;20026;-70
2023/09/13 09:41:03;;;;;;;12.38;8.27;;;;;;;20.91;98.88;100867.72;6084985;23;20398;-73
2023/09/13 09:43:30;;;;;;;10.27;8.20;;;;;;;20.48;100.00;100836.13;6060434;23;20037;-71
2023/09/13 09:45:57;;;;;;;9.85;8.52;;;;;;;20.49;100.00;100873.34;6062253;23;20042;-72
2023/09/13 09:48:24;;;;;;;15.57;8.38;;;;;;;20.66;100.00;100886.97;6087393;23;20096;-71
2023/09/13 09:50:52;;;;;;;12.02;7.93;;;;;;;20.64;100.00;100849.75;6087000;23;20013;-72
2023/09/13 09:53:22;;;;;;;10.05;8.25;;;;;;;21.42;97.80;100875.44;6084545;23;20313;-71
2023/09/13 09:55:50;;;;;;;8.60;7.80;;;;;;;21.62;94.82;100830.81;6082874;23;20513;-71
2023/09/13 09:58:17;;;;;;;9.18;8.30;;;;;;;21.47;90.23;100711.16;6082535;23;20069;-70
2023/09/13 10:00:47;;;;;;;9.05;8.18;;;;;;;22.22;89.52;100803.56;6066242;23;20010;-71
2023/09/13 10:03:17;;;;;;;8.20;7.50;;;;;;;22.29;87.31;100762.72;6080998;23;20262;-72
2023/09/13 10:05:55;;;;;;;10.25;7.15;;;;;;;22.30;86.93;100761.72;6082883;23;20329;-72
2023/09/13 10:08:42;;;;;;;8.13;7.53;;;;;;;22.75;87.17;100793.78;6090107;23;20045;-70
2023/09/13 10:11:17;;;;;;;8.45;7.65;;;;;;;22.70;83.19;100706.81;6039021;23;20026;-72
2023/09/13 10:13:47;;;;;;;8.45;7.68;;;;;;;22.75;81.94;100686.78;6081892;23;20655;-71
2023/09/13 10:16:15;;;;;;;8.27;7.57;;;;;;;22.91;81.14;100686.84;6061847;23;20094;-72
2023/09/13 10:18:51;;;;;;;8.55;7.70;;;;;;;22.65;79.31;100652.97;6088527;23;20033;-72
2023/09/13 10:21:26;;;;;;;8.50;7.57;;;;;;;22.72;81.60;100727.25;6073971;23;20083;-72
2023/09/13 10:24:01;;;;;;;9.25;8.20;;;;;;;22.50;82.23;100724.09;6080604;23;20056;-72
2023/09/13 10:26:30;;;;;;;8.23;7.47;;;;;;;22.02;81.66;100670.09;6060721;23;20490;-72
2023/09/13 10:29:04;;;;;;;9.23;7.65;;;;;;;22.39;81.29;100730.56;6083364;23;20032;-71
2023/09/13 10:31:34;;;;;;;7.75;7.10;;;;;;;22.42;80.06;100691.94;6089462;23;20026;-71
2023/09/13 10:34:07;;;;;;;8.30;7.60;;;;;;;22.22;80.17;100676.06;6080272;23;20018;-72
2023/09/13 10:36:38;;;;;;;8.90;7.95;;;;;;;22.62;80.66;100730.84;6085703;23;20037;-71
2023/09/13 10:39:18;;;;;;;8.43;7.63;;;;;;;22.62;78.43;100666.66;6089070;23;20036;-71
2023/09/13 10:42:06;;;;;;;8.02;7.30;;;;;;;23.05;78.48;100718.41;6064397;23;20036;-72
2023/09/13 10:44:35;;;;;;;7.75;7.22;;;;;;;22.88;75.43;100604.22;6063864;23;20018;-72
2023/09/13 10:47:04;;;;;;;8.00;7.40;;;;;;;23.30;75.17;100647.03;6094992;23;20053;-72
2023/09/13 10:49:31;;;;;;;7.30;6.65;;;;;;;23.69;75.83;100699.13;6057737;23;20025;-71
2023/09/13 10:51:59;;;;;;;7.60;7.00;;;;;;;23.73;72.88;100598.66;6086582;23;20099;-72
2023/09/13 10:54:26;;;;;;;7.72;7.13;;;;;;;24.29;72.21;100666.69;6080227;23;20476;-71
2023/09/13 10:56:53;;;;;;;8.57;7.85;;;;;;;23.89;70.65;100579.94;6056871;23;20029;-71
2023/09/13 10:59:21;;;;;;;8.45;7.65;;;;;;;24.47;70.83;100682.53;6092158;23;20253;-72
2023/09/13 11:01:51;;;;;;;8.37;7.77;;;;;;;24.28;70.94;100635.47;6096227;23;20530;-72
2023/09/13 11:04:21;;;;;;;7.50;6.90;;;;;;;24.63;69.21;100629.88;6079079;23;20030;-72
2023/09/13 11:06:48;;;;;;;7.53;6.93;;;;;;;24.77;70.04;100685.50;6089560;23;20353;-71
2023/09/13 11:09:24;;;;;;;8.15;7.40;;;;;;;24.58;70.17;100676.00;6057464;23;20051;-72
2023/09/13 11:11:54;;;;;;;8.43;7.10;;;;;;;23.08;71.67;100509.28;6090280;23;20037;-72
2023/09/13 11:14:29;;;;;;;7.70;7.15;;;;;;;23.15;74.81;100682.63;6089361;23;20018;-73